createdAt,value
2019-05-25T00:01:45.947Z,12.15
2019-05-25T00:04:14.656Z,10.40
2019-05-25T00:06:43.321Z,7.22
2019-05-25T00:09:12.093Z,8.23
2019-05-25T00:11:40.763Z,10.20
2019-05-25T00:14:09.518Z,11.57
2019-05-25T00:16:38.182Z,14.60
2019-05-25T00:19:06.889Z,12.75
2019-05-25T00:21:35.598Z,10.23
2019-05-25T00:24:12.395Z,10.38
2019-05-25T00:26:34.852Z,9.53
2019-05-25T00:29:03.544Z,13.30
2019-05-25T00:31:37.558Z,14.30
2019-05-25T00:34:06.321Z,17.60
2019-05-25T00:36:35.456Z,10.90
2019-05-25T00:39:05.522Z,6.70
2019-05-25T00:41:34.258Z,14.55
2019-05-25T00:44:03.126Z,15.13
2019-05-25T00:46:31.798Z,15.93
2019-05-25T00:49:01.085Z,10.23
2019-05-25T00:51:29.769Z,11.12
2019-05-25T00:53:58.531Z,11.57
2019-05-25T00:56:27.214Z,11.20
2019-05-25T00:58:55.972Z,17.02
2019-05-25T01:01:24.713Z,13.53
2019-05-25T01:03:53.483Z,10.72
2019-05-25T01:06:22.208Z,13.72
2019-05-25T01:08:50.921Z,13.45
2019-05-25T01:11:19.651Z,14.38
2019-05-25T01:13:48.331Z,15.78
2019-05-25T01:16:17.019Z,11.75
2019-05-25T01:18:45.694Z,12.23
2019-05-25T01:21:14.388Z,13.22
2019-05-25T01:23:43.050Z,12.93
2019-05-25T01:26:11.800Z,13.55
2019-05-25T01:28:40.531Z,14.68
2019-05-25T01:31:09.241Z,13.50
2019-05-25T01:33:37.914Z,14.98
2019-05-25T01:36:06.627Z,13.60
2019-05-25T01:38:35.374Z,10.80
2019-05-25T01:41:04.321Z,13.68
2019-05-25T01:43:33.007Z,12.37
2019-05-25T01:46:01.702Z,12.10
2019-05-25T01:48:30.492Z,14.00
2019-05-25T01:50:59.189Z,13.35
2019-05-25T01:53:27.871Z,10.53
2019-05-25T01:55:56.635Z,11.40
2019-05-25T01:58:25.295Z,9.65
2019-05-25T02:00:54.084Z,14.40
2019-05-25T02:03:22.819Z,15.65
2019-05-25T02:05:51.526Z,16.57
2019-05-25T02:08:20.186Z,12.95
2019-05-25T02:10:48.872Z,12.13
2019-05-25T02:13:17.593Z,12.60
2019-05-25T02:15:46.773Z,10.82
2019-05-25T02:18:15.443Z,12.82
2019-05-25T02:20:44.125Z,12.45
2019-05-25T02:23:12.915Z,13.08
2019-05-25T02:25:41.607Z,13.43
2019-05-25T02:28:10.282Z,12.03
2019-05-25T02:30:39.005Z,14.18
2019-05-25T02:33:07.727Z,12.65
2019-05-25T02:35:36.429Z,17.02
2019-05-25T02:38:05.090Z,14.18
2019-05-25T02:40:33.875Z,16.52
2019-05-25T02:43:02.539Z,19.62
2019-05-25T02:45:31.229Z,13.60
2019-05-25T02:47:59.898Z,16.07
2019-05-25T02:50:28.669Z,15.08
2019-05-25T02:52:57.349Z,14.05
2019-05-25T02:55:34.417Z,14.33
2019-05-25T02:57:56.561Z,16.55
2019-05-25T03:00:34.932Z,16.93
2019-05-25T03:03:07.596Z,17.00
2019-05-25T03:05:41.658Z,15.63
2019-05-25T03:08:10.404Z,15.55
2019-05-25T03:10:40.001Z,18.00
2019-05-25T03:13:08.667Z,18.40
2019-05-25T03:15:37.562Z,14.03
2019-05-25T03:18:06.226Z,17.60
2019-05-25T03:20:34.925Z,15.85
2019-05-25T03:23:04.047Z,12.93
2019-05-25T03:25:48.301Z,13.10
2019-05-25T03:28:03.148Z,13.45
2019-05-25T03:30:34.443Z,13.95
2019-05-25T03:33:03.190Z,15.23
2019-05-25T03:35:31.960Z,19.12
2019-05-25T03:38:00.664Z,14.87
2019-05-25T03:40:29.377Z,15.38
2019-05-25T03:42:58.048Z,13.62
2019-05-25T03:45:26.794Z,16.07
2019-05-25T03:47:55.577Z,17.82
2019-05-25T03:50:24.244Z,18.17
2019-05-25T03:52:52.946Z,17.10
2019-05-25T03:55:21.823Z,13.58
2019-05-25T03:57:50.597Z,17.85
2019-05-25T04:00:25.253Z,17.27
2019-05-25T04:02:53.987Z,16.20
2019-05-25T04:05:24.359Z,17.00
2019-05-25T04:07:53.176Z,15.63
2019-05-25T04:10:21.942Z,15.53
2019-05-25T04:12:50.643Z,14.65
2019-05-25T04:15:19.446Z,12.65
2019-05-25T04:17:48.161Z,13.85
2019-05-25T04:20:17.031Z,17.05
2019-05-25T04:22:45.801Z,17.40
2019-05-25T04:25:14.673Z,14.98
2019-05-25T04:27:43.455Z,13.38
2019-05-25T04:30:12.622Z,12.73
2019-05-25T04:32:41.386Z,14.13
2019-05-25T04:35:10.166Z,14.55
2019-05-25T04:37:38.930Z,13.28
2019-05-25T04:40:08.546Z,16.30
2019-05-25T04:42:37.328Z,14.25
2019-05-25T04:45:08.114Z,16.12
2019-05-25T04:47:36.941Z,16.40
2019-05-25T04:50:10.123Z,19.30
2019-05-25T04:52:41.328Z,16.95
2019-05-25T04:55:09.585Z,17.23
2019-05-25T04:57:38.302Z,15.55
2019-05-25T05:00:07.770Z,16.02
2019-05-25T05:02:36.500Z,13.05
2019-05-25T05:05:07.178Z,19.57
2019-05-25T05:07:35.865Z,16.42
2019-05-25T05:10:08.851Z,14.75
2019-05-25T05:12:37.653Z,14.70
2019-05-25T05:15:06.822Z,16.15
2019-05-25T05:17:35.613Z,19.10
2019-05-25T05:20:08.660Z,15.10
2019-05-25T05:22:37.457Z,16.97
2019-05-25T05:25:07.137Z,18.55
2019-05-25T05:27:36.025Z,15.90
2019-05-25T05:30:06.817Z,15.88
2019-05-25T05:32:35.575Z,18.30
2019-05-25T05:35:08.707Z,14.05
2019-05-25T05:37:37.670Z,16.05
2019-05-25T05:40:08.510Z,13.48
2019-05-25T05:42:39.653Z,20.57
2019-05-25T05:45:08.855Z,17.25
2019-05-25T05:47:37.656Z,13.62
2019-05-25T05:50:08.217Z,17.60
2019-05-25T05:52:38.871Z,15.40
2019-05-25T05:55:10.393Z,13.32
2019-05-25T05:57:39.093Z,15.45
2019-05-25T06:00:10.571Z,12.80
2019-05-25T06:02:39.315Z,11.03
2019-05-25T06:05:08.197Z,12.60
2019-05-25T06:07:36.964Z,14.33
2019-05-25T06:10:07.935Z,13.65
2019-05-25T06:12:36.627Z,11.18
2019-05-25T06:15:07.917Z,12.35
2019-05-25T06:17:36.589Z,15.48
2019-05-25T06:20:07.270Z,14.98
2019-05-25T06:22:36.108Z,13.50
2019-05-25T06:25:06.910Z,8.50
2019-05-25T06:27:35.579Z,11.25
2019-05-25T06:30:06.409Z,11.78
2019-05-25T06:32:35.109Z,9.23
2019-05-25T06:35:05.756Z,8.95
2019-05-25T06:37:34.465Z,11.48
2019-05-25T06:40:04.869Z,9.43
2019-05-25T06:42:33.557Z,11.48
2019-05-25T06:45:02.370Z,11.18
2019-05-25T06:47:31.117Z,15.32
2019-05-25T06:49:59.823Z,12.90
2019-05-25T06:52:28.524Z,13.62
2019-05-25T06:54:57.215Z,12.40
2019-05-25T06:57:25.874Z,11.93
2019-05-25T06:59:54.654Z,12.88
2019-05-25T07:02:23.451Z,10.93
2019-05-25T07:04:52.174Z,13.18
2019-05-25T07:07:20.934Z,9.65
2019-05-25T07:09:49.703Z,13.75
2019-05-25T07:12:18.386Z,13.28
2019-05-25T07:14:47.175Z,10.50
2019-05-25T07:17:16.167Z,11.50
2019-05-25T07:19:44.945Z,10.35
2019-05-25T07:22:13.665Z,14.90
2019-05-25T07:24:42.510Z,14.85
2019-05-25T07:27:11.468Z,15.35
2019-05-25T07:29:40.173Z,14.05
2019-05-25T07:32:08.911Z,10.95
2019-05-25T07:34:37.641Z,14.23
2019-05-25T07:37:06.327Z,13.95
2019-05-25T07:39:35.094Z,13.20
2019-05-25T07:42:03.791Z,11.73
2019-05-25T07:44:32.860Z,10.93
2019-05-25T07:47:01.670Z,11.33
2019-05-25T07:49:30.458Z,10.13
2019-05-25T07:52:02.488Z,8.75
2019-05-25T07:54:32.132Z,9.80
2019-05-25T07:57:22.237Z,10.60
2019-05-25T07:59:51.055Z,10.63
2019-05-25T08:02:19.709Z,7.85
2019-05-25T08:04:48.410Z,11.93
2019-05-25T08:07:17.071Z,9.15
2019-05-25T08:09:45.854Z,8.68
2019-05-25T08:12:14.514Z,11.18
2019-05-25T08:14:45.154Z,11.80
2019-05-25T08:17:14.950Z,9.93
2019-05-25T08:19:43.717Z,10.98
2019-05-25T08:22:12.459Z,11.53
2019-05-25T08:24:41.125Z,6.70
2019-05-25T08:27:09.826Z,10.00
2019-05-25T08:29:38.556Z,12.58
2019-05-25T08:32:07.267Z,8.45
2019-05-25T08:34:36.060Z,10.43
2019-05-25T08:37:04.791Z,6.42
2019-05-25T08:39:33.576Z,8.13
2019-05-25T08:42:02.345Z,7.45
2019-05-25T08:44:31.029Z,7.47
2019-05-25T08:46:59.719Z,10.10
2019-05-25T08:49:28.429Z,7.30
2019-05-25T08:51:57.156Z,7.85
2019-05-25T08:54:25.944Z,6.33
2019-05-25T08:56:54.671Z,7.17
2019-05-25T08:59:23.443Z,5.58
2019-05-25T09:01:52.209Z,8.08
2019-05-25T09:04:21.593Z,3.85
2019-05-25T09:06:50.405Z,9.25
2019-05-25T09:09:19.145Z,6.62
2019-05-25T09:11:47.852Z,6.58
2019-05-25T09:14:16.627Z,8.70
2019-05-25T09:16:45.294Z,6.65
2019-05-25T09:19:14.123Z,5.97
2019-05-25T09:21:42.892Z,4.67
2019-05-25T09:24:11.628Z,5.10
2019-05-25T09:26:40.359Z,10.60
2019-05-25T09:29:09.542Z,8.75
2019-05-25T09:31:38.285Z,10.82
2019-05-25T09:34:06.957Z,8.75
2019-05-25T09:36:35.621Z,6.45
2019-05-25T09:39:05.937Z,5.85
2019-05-25T09:41:34.615Z,7.03
2019-05-25T09:44:03.387Z,8.05
2019-05-25T09:46:32.129Z,5.90
2019-05-25T09:49:00.817Z,9.78
2019-05-25T09:51:29.565Z,3.90
2019-05-25T09:53:58.311Z,5.30
2019-05-25T09:56:27.043Z,4.25
2019-05-25T09:58:55.827Z,4.65
2019-05-25T10:01:24.580Z,9.68
2019-05-25T10:03:56.492Z,6.28
2019-05-25T10:06:23.813Z,4.30
2019-05-25T10:08:52.654Z,5.62
2019-05-25T10:11:21.290Z,9.13
2019-05-25T10:13:50.052Z,5.22
2019-05-25T10:16:18.884Z,6.28
2019-05-25T10:18:47.615Z,4.80
2019-05-25T10:21:16.398Z,5.25
2019-05-25T10:23:45.051Z,3.83
2019-05-25T10:26:13.777Z,4.50
2019-05-25T10:28:43.189Z,5.65
2019-05-25T10:31:11.944Z,6.05
2019-05-25T10:33:40.734Z,6.10
2019-05-25T10:36:09.412Z,7.25
2019-05-25T10:38:38.206Z,7.08
2019-05-25T10:41:06.974Z,6.15
2019-05-25T10:43:37.282Z,4.55
2019-05-25T10:46:06.043Z,3.65
2019-05-25T10:48:34.774Z,4.75
2019-05-25T10:51:03.502Z,5.80
2019-05-25T10:53:32.198Z,5.87
2019-05-25T10:56:00.913Z,4.65
2019-05-25T10:58:30.184Z,4.75
2019-05-25T11:00:58.918Z,3.67
2019-05-25T11:03:27.635Z,6.45
2019-05-25T11:05:56.379Z,3.27
2019-05-25T11:08:25.104Z,6.17
2019-05-25T11:10:53.817Z,4.83
2019-05-25T11:13:22.476Z,7.70
2019-05-25T11:15:51.259Z,5.83
2019-05-25T11:18:20.070Z,8.45
2019-05-25T11:20:48.736Z,8.50
2019-05-25T11:23:17.619Z,4.70
2019-05-25T11:25:46.481Z,6.90
2019-05-25T11:28:15.274Z,9.10
2019-05-25T11:30:43.930Z,7.50
2019-05-25T11:33:12.700Z,8.70
2019-05-25T11:35:41.372Z,4.97
2019-05-25T11:38:10.223Z,7.03
2019-05-25T11:40:38.961Z,6.33
2019-05-25T11:43:07.688Z,6.05
2019-05-25T11:45:36.386Z,7.12
2019-05-25T11:48:06.314Z,6.85
2019-05-25T11:50:35.100Z,6.65
2019-05-25T11:53:05.867Z,6.42
2019-05-25T11:55:34.355Z,4.95
2019-05-25T11:58:03.151Z,6.97
2019-05-25T12:00:32.001Z,6.05
2019-05-25T12:03:00.782Z,6.55
2019-05-25T12:05:29.448Z,7.25
2019-05-25T12:07:58.137Z,7.40
2019-05-25T12:10:28.251Z,10.03
2019-05-25T12:12:56.988Z,9.70
2019-05-25T12:15:25.650Z,7.03
2019-05-25T12:17:54.363Z,8.63
2019-05-25T12:20:23.132Z,6.78
2019-05-25T12:22:51.920Z,8.48
2019-05-25T12:25:20.766Z,7.65
2019-05-25T12:27:49.899Z,7.85
2019-05-25T12:30:20.068Z,6.28
2019-05-25T12:32:48.812Z,9.60
2019-05-25T12:35:19.258Z,6.53
2019-05-25T12:37:47.999Z,8.63
2019-05-25T12:40:16.965Z,4.65
2019-05-25T12:42:46.060Z,5.33
2019-05-25T12:45:16.031Z,4.80
2019-05-25T12:47:44.811Z,6.72
2019-05-25T12:50:14.201Z,7.58
2019-05-25T12:52:42.866Z,5.67
2019-05-25T12:55:11.995Z,8.25
2019-05-25T12:57:40.744Z,6.95
2019-05-25T13:00:15.864Z,10.48
2019-05-25T13:02:40.333Z,7.75
2019-05-25T13:05:09.255Z,8.33
2019-05-25T13:07:38.006Z,10.05
2019-05-25T13:10:08.202Z,9.40
2019-05-25T13:12:36.937Z,9.03
2019-05-25T13:15:08.969Z,6.83
2019-05-25T13:17:37.684Z,7.75
2019-05-25T13:20:07.076Z,9.30
2019-05-25T13:22:35.807Z,9.53
2019-05-25T13:25:08.081Z,7.78
2019-05-25T13:27:36.850Z,7.00
2019-05-25T13:30:10.441Z,9.05
2019-05-25T13:32:39.117Z,5.85
2019-05-25T13:35:09.009Z,8.55
2019-05-25T13:37:37.805Z,7.22
2019-05-25T13:40:07.382Z,11.45
2019-05-25T13:42:36.064Z,7.75
2019-05-25T13:45:09.619Z,6.10
2019-05-25T13:47:38.300Z,11.68
2019-05-25T13:50:10.964Z,9.60
2019-05-25T13:52:39.658Z,7.00
2019-05-25T13:55:08.641Z,8.13
2019-05-25T13:57:37.350Z,8.88
2019-05-25T14:00:08.171Z,8.23
2019-05-25T14:02:36.895Z,8.60
2019-05-25T14:05:07.385Z,7.75
2019-05-25T14:07:36.193Z,5.65
2019-05-25T14:10:07.595Z,10.13
2019-05-25T14:12:36.305Z,8.03
2019-05-25T14:15:06.850Z,5.17
2019-05-25T14:17:35.621Z,11.57
2019-05-25T14:20:06.521Z,12.90
2019-05-25T14:22:35.350Z,7.20
2019-05-25T14:25:05.748Z,10.45
2019-05-25T14:27:34.492Z,8.70
2019-05-25T14:30:03.752Z,6.17
2019-05-25T14:32:32.427Z,7.80
2019-05-25T14:35:01.221Z,7.40
2019-05-25T14:37:29.911Z,8.53
2019-05-25T14:39:58.663Z,7.15
2019-05-25T14:42:27.415Z,8.95
2019-05-25T14:44:56.081Z,5.17
2019-05-25T14:47:25.100Z,5.80
2019-05-25T14:49:53.907Z,6.72
2019-05-25T14:52:22.658Z,5.55
2019-05-25T14:54:51.439Z,7.08
2019-05-25T14:57:20.198Z,8.23
2019-05-25T14:59:48.892Z,9.90
2019-05-25T15:02:17.681Z,8.35
2019-05-25T15:04:46.534Z,6.45
2019-05-25T15:07:15.299Z,7.83
2019-05-25T15:09:43.990Z,8.20
2019-05-25T15:12:12.737Z,7.65
2019-05-25T15:14:41.408Z,8.45
2019-05-25T15:17:10.181Z,8.93
2019-05-25T15:19:38.914Z,9.00
2019-05-25T15:22:07.890Z,9.13
2019-05-25T15:24:36.603Z,7.78
2019-05-25T15:27:05.381Z,8.00
2019-05-25T15:29:34.079Z,11.68
2019-05-25T15:32:18.828Z,7.33
2019-05-25T15:34:33.152Z,11.35
2019-05-25T15:37:01.833Z,7.08
2019-05-25T15:39:30.617Z,7.67
2019-05-25T15:41:59.379Z,9.68
2019-05-25T15:44:29.916Z,9.95
2019-05-25T15:46:58.577Z,8.88
2019-05-25T15:49:33.172Z,10.28
2019-05-25T15:51:57.735Z,8.53
2019-05-25T15:54:26.456Z,7.33
2019-05-25T15:56:55.216Z,7.97
2019-05-25T15:59:23.996Z,7.62
2019-05-25T16:01:52.686Z,8.23
2019-05-25T16:04:21.372Z,9.45
2019-05-25T16:06:50.441Z,9.05
2019-05-25T16:09:19.160Z,7.30
2019-05-25T16:11:47.882Z,8.50
2019-05-25T16:14:16.576Z,8.65
2019-05-25T16:16:45.267Z,7.15
2019-05-25T16:19:13.989Z,9.35
2019-05-25T16:21:42.760Z,6.10
2019-05-25T16:24:11.433Z,6.62
2019-05-25T16:26:46.179Z,5.97
2019-05-25T16:29:10.624Z,10.23
2019-05-25T16:31:39.463Z,7.40
2019-05-25T16:34:08.217Z,6.78
2019-05-25T16:36:36.953Z,7.70
2019-05-25T16:39:08.180Z,8.08
2019-05-25T16:41:36.888Z,9.33
2019-05-25T16:44:05.695Z,8.98
2019-05-25T16:46:34.412Z,8.55
2019-05-25T16:49:03.197Z,6.25
2019-05-25T16:51:31.896Z,10.35
2019-05-25T16:54:00.591Z,6.65
2019-05-25T16:56:29.343Z,6.85
2019-05-25T16:58:58.116Z,5.97
2019-05-25T17:01:26.786Z,6.15
2019-05-25T17:03:55.566Z,5.58
2019-05-25T17:06:24.269Z,8.10
2019-05-25T17:08:56.235Z,6.97
2019-05-25T17:11:23.430Z,6.25
2019-05-25T17:13:52.126Z,7.10
2019-05-25T17:16:20.792Z,9.45
2019-05-25T17:18:49.604Z,7.50
2019-05-25T17:21:18.341Z,10.70
2019-05-25T17:23:47.032Z,6.70
2019-05-25T17:26:15.772Z,8.65
2019-05-25T17:28:44.556Z,7.67
2019-05-25T17:31:13.253Z,9.98
2019-05-25T17:33:45.835Z,8.10
2019-05-25T17:36:13.248Z,5.33
2019-05-25T17:38:42.051Z,6.50
2019-05-25T17:41:10.826Z,7.50
2019-05-25T17:43:40.423Z,11.85
2019-05-25T17:46:09.159Z,9.25
2019-05-25T17:48:37.839Z,11.50
2019-05-25T17:51:06.597Z,6.72
2019-05-25T17:53:35.307Z,9.20
2019-05-25T17:56:04.160Z,5.33
2019-05-25T17:58:32.881Z,8.58
2019-05-25T18:01:01.638Z,8.18
2019-05-25T18:03:35.175Z,9.50
2019-05-25T18:06:04.233Z,5.17
2019-05-25T18:08:32.963Z,6.20
2019-05-25T18:11:01.752Z,6.60
2019-05-25T18:13:30.505Z,7.40
2019-05-25T18:15:59.165Z,7.03
2019-05-25T18:18:27.872Z,7.75
2019-05-25T18:20:56.611Z,6.65
2019-05-25T18:23:25.304Z,8.30
2019-05-25T18:25:54.059Z,5.30
2019-05-25T18:28:22.746Z,7.17
2019-05-25T18:30:51.504Z,4.70
2019-05-25T18:33:20.215Z,7.28
2019-05-25T18:35:48.856Z,6.62
2019-05-25T18:38:17.654Z,8.43
2019-05-25T18:40:46.380Z,5.75
2019-05-25T18:43:15.050Z,10.05
2019-05-25T18:45:43.758Z,6.17
2019-05-25T18:48:12.506Z,7.47
2019-05-25T18:50:41.196Z,4.80
2019-05-25T18:53:09.984Z,7.15
2019-05-25T18:55:38.718Z,5.35
2019-05-25T18:58:07.475Z,10.98
2019-05-25T19:00:36.272Z,5.08
2019-05-25T19:03:05.123Z,7.72
2019-05-25T19:05:33.796Z,6.75
2019-05-25T19:08:02.616Z,3.62
2019-05-25T19:10:31.376Z,6.05
2019-05-25T19:13:00.081Z,8.98
2019-05-25T19:15:28.740Z,6.20
2019-05-25T19:17:57.446Z,5.67
2019-05-25T19:20:26.148Z,7.97
2019-05-25T19:22:55.101Z,7.92
2019-05-25T19:25:23.847Z,4.80
2019-05-25T19:27:52.570Z,4.65
2019-05-25T19:30:21.551Z,3.47
2019-05-25T19:32:50.286Z,7.20
2019-05-25T19:35:19.428Z,4.30
2019-05-25T19:37:48.103Z,7.03
2019-05-25T19:40:21.968Z,5.45
2019-05-25T19:42:50.789Z,5.45
2019-05-25T19:45:19.969Z,5.37
2019-05-25T19:47:48.717Z,5.12
2019-05-25T19:50:17.734Z,4.80
2019-05-25T19:52:46.428Z,6.15
2019-05-25T19:55:15.338Z,5.25
2019-05-25T19:57:45.343Z,3.50
2019-05-25T20:00:16.088Z,4.60
2019-05-25T20:02:44.750Z,6.92
2019-05-25T20:05:16.735Z,7.25
2019-05-25T20:07:44.309Z,4.17
2019-05-25T20:10:13.550Z,6.47
2019-05-25T20:12:42.167Z,6.20
2019-05-25T20:15:11.878Z,5.35
2019-05-25T20:17:40.544Z,6.90
2019-05-25T20:20:09.999Z,8.78
2019-05-25T20:22:38.759Z,6.83
2019-05-25T20:25:08.271Z,5.85
2019-05-25T20:27:36.946Z,7.35
2019-05-25T20:30:09.270Z,7.58
2019-05-25T20:32:37.933Z,5.67
2019-05-25T20:35:08.617Z,7.03
2019-05-25T20:37:37.299Z,6.08
2019-05-25T20:40:10.083Z,6.97
2019-05-25T20:42:39.129Z,5.75
2019-05-25T20:45:08.808Z,6.33
2019-05-25T20:47:37.944Z,8.15
2019-05-25T20:50:08.169Z,6.25
2019-05-25T20:52:36.982Z,7.28
2019-05-25T20:55:08.075Z,5.12
2019-05-25T20:57:36.776Z,5.55
2019-05-25T21:00:09.553Z,7.28
2019-05-25T21:02:45.254Z,4.53
2019-05-25T21:05:14.913Z,7.10
2019-05-25T21:07:44.629Z,5.17
2019-05-25T21:10:14.975Z,3.65
2019-05-25T21:12:44.823Z,7.25
2019-05-25T21:15:13.758Z,6.80
2019-05-25T21:17:42.406Z,7.10
2019-05-25T21:20:11.329Z,6.37
2019-05-25T21:22:40.022Z,5.12
2019-05-25T21:25:09.004Z,4.55
2019-05-25T21:27:37.793Z,4.67
2019-05-25T21:30:07.941Z,4.35
2019-05-25T21:32:36.606Z,7.25
2019-05-25T21:35:06.458Z,6.87
2019-05-25T21:37:35.205Z,6.05
2019-05-25T21:40:07.064Z,5.70
2019-05-25T21:42:35.826Z,6.00
2019-05-25T21:45:06.286Z,5.33
2019-05-25T21:47:35.020Z,6.75
2019-05-25T21:50:04.549Z,5.03
2019-05-25T21:52:33.317Z,7.45
2019-05-25T21:55:02.127Z,6.67
2019-05-25T21:57:31.090Z,9.55
2019-05-25T21:59:59.761Z,9.53
2019-05-25T22:02:28.450Z,7.47
2019-05-25T22:04:57.246Z,9.00
2019-05-25T22:07:25.908Z,7.22
2019-05-25T22:09:54.585Z,6.75
2019-05-25T22:12:23.268Z,7.05
2019-05-25T22:14:51.984Z,6.50
2019-05-25T22:17:20.654Z,4.05
2019-05-25T22:19:49.326Z,8.45
2019-05-25T22:22:18.103Z,10.43
2019-05-25T22:24:46.783Z,5.75
2019-05-25T22:27:15.453Z,9.05
2019-05-25T22:29:44.210Z,7.85
2019-05-25T22:32:12.913Z,8.80
2019-05-25T22:34:41.641Z,5.45
2019-05-25T22:37:10.315Z,7.87
2019-05-25T22:39:39.021Z,4.92
2019-05-25T22:42:07.686Z,6.30
2019-05-25T22:44:36.423Z,4.47
2019-05-25T22:47:05.097Z,4.95
2019-05-25T22:49:33.800Z,9.25
2019-05-25T22:52:02.625Z,4.97
2019-05-25T22:54:31.290Z,8.85
2019-05-25T22:57:00.002Z,6.05
2019-05-25T22:59:28.664Z,10.13
2019-05-25T23:01:57.395Z,8.85
2019-05-25T23:04:26.090Z,8.05
2019-05-25T23:06:58.267Z,8.33
2019-05-25T23:09:25.801Z,6.33
2019-05-25T23:11:54.564Z,7.03
2019-05-25T23:14:23.234Z,8.48
2019-05-25T23:16:51.997Z,8.53
2019-05-25T23:19:20.680Z,7.20
2019-05-25T23:21:49.434Z,10.70
2019-05-25T23:24:18.178Z,8.78
2019-05-25T23:26:46.874Z,9.35
2019-05-25T23:29:15.614Z,7.03
2019-05-25T23:31:44.346Z,10.78
2019-05-25T23:34:13.072Z,9.70
2019-05-25T23:36:41.826Z,7.95
2019-05-25T23:39:10.482Z,8.55
2019-05-25T23:41:39.270Z,9.75
2019-05-25T23:44:07.954Z,7.95
2019-05-25T23:46:36.727Z,10.80
2019-05-25T23:49:05.430Z,9.45
2019-05-25T23:51:34.124Z,9.63
2019-05-25T23:54:02.856Z,12.07
2019-05-25T23:56:31.802Z,9.68
2019-05-25T23:59:00.955Z,10.90
